Time,TemperatureF,DewpointF,PressureIn,WindDirection,WindDirectionDegrees,WindSpeedMPH,WindSpeedGustMPH,Humidity,HourlyPrecipIn,Conditions,Clouds,dailyrainin,SoftwareType,DateUTC
2013-01-03 00:00:00,23.2,11.0,30.17,NW,309,0.0,0.0,59,0.00,,---,0.00,VWS V14.01,2013-01-03 05:00:00,
2013-01-03 00:02:00,23.3,11.1,30.17,North,355,1.0,3.0,59,0.00,,---,0.00,VWS V14.01,2013-01-03 05:02:00,
2013-01-03 00:07:00,23.6,11.0,30.17,North,360,0.0,0.0,58,0.00,,---,0.00,VWS V14.01,2013-01-03 05:07:00,
2013-01-03 00:12:00,23.5,10.9,30.17,North,360,0.0,0.0,58,0.00,,---,0.00,VWS V14.01,2013-01-03 05:12:00,
2013-01-03 00:17:00,23.5,11.3,30.17,North,360,0.0,0.0,59,0.00,,---,0.00,VWS V14.01,2013-01-03 05:17:00,
2013-01-03 00:22:00,23.2,11.0,30.17,North,360,0.0,0.0,59,0.00,,---,0.00,VWS V14.01,2013-01-03 05:22:00,
2013-01-03 00:27:00,22.5,11.1,30.17,North,360,0.0,0.0,61,0.00,,---,0.00,VWS V14.01,2013-01-03 05:27:00,
2013-01-03 00:32:00,21.9,11.2,30.16,North,360,0.0,0.0,63,0.00,,---,0.00,VWS V14.01,2013-01-03 05:32:00,
2013-01-03 00:37:00,21.9,11.6,30.16,North,360,0.0,0.0,64,0.00,,---,0.00,VWS V14.01,2013-01-03 05:37:00,
2013-01-03 00:42:00,22.5,11.8,30.16,North,355,0.0,3.0,63,0.00,,---,0.00,VWS V14.01,2013-01-03 05:42:00,
2013-01-03 00:47:00,22.7,11.6,30.16,North,355,0.0,4.0,62,0.00,,---,0.00,VWS V14.01,2013-01-03 05:47:00,
2013-01-03 00:52:00,22.9,11.5,30.16,North,355,0.0,0.0,61,0.00,,---,0.00,VWS V14.01,2013-01-03 05:52:00,
2013-01-03 00:57:00,22.9,11.5,30.16,North,355,0.0,0.0,61,0.00,,---,0.00,VWS V14.01,2013-01-03 05:57:00,
2013-01-03 01:02:00,23.2,11.8,30.16,North,355,0.0,3.0,61,0.00,,---,0.00,VWS V14.01,2013-01-03 06:02:00,
2013-01-03 01:07:00,23.2,11.8,30.16,NW,315,0.0,1.0,61,0.00,,---,0.00,VWS V14.01,2013-01-03 06:07:00,
2013-01-03 01:12:00,23.2,11.8,30.16,NW,321,0.0,1.0,61,0.00,,---,0.00,VWS V14.01,2013-01-03 06:12:00,
2013-01-03 01:17:00,23.3,11.9,30.15,NW,322,4.0,4.0,61,0.00,,---,0.00,VWS V14.01,2013-01-03 06:17:00,
2013-01-03 01:22:00,23.5,11.7,30.15,North,10,2.0,7.0,60,0.00,,---,0.00,VWS V14.01,2013-01-03 06:22:00,
2013-01-03 01:27:00,23.5,11.7,30.15,NNW,338,0.0,0.0,60,0.00,,---,0.00,VWS V14.01,2013-01-03 06:27:00,
2013-01-03 01:32:00,23.5,11.7,30.15,NW,311,2.0,3.0,60,0.00,,---,0.00,VWS V14.01,2013-01-03 06:32:00,
2013-01-03 01:37:00,23.6,11.8,30.15,NW,311,0.0,0.0,60,0.00,,---,0.00,VWS V14.01,2013-01-03 06:37:00,
2013-01-03 01:42:00,23.6,11.8,30.15,NW,319,0.0,2.0,60,0.00,,---,0.00,VWS V14.01,2013-01-03 06:42:00,
2013-01-03 01:47:00,23.6,11.8,30.15,North,351,4.0,4.0,60,0.00,,---,0.00,VWS V14.01,2013-01-03 06:47:00,
2013-01-03 01:52:00,23.6,12.1,30.15,NNW,347,0.0,2.0,61,0.00,,---,0.00,VWS V14.01,2013-01-03 06:52:00,
2013-01-03 01:57:00,23.8,12.3,30.15,NW,313,0.0,4.0,61,0.00,,---,0.00,VWS V14.01,2013-01-03 06:57:00,
2013-01-03 02:02:00,23.8,12.3,30.16,North,355,0.0,0.0,61,0.00,,---,0.00,VWS V14.01,2013-01-03 07:02:00,
2013-01-03 02:07:00,23.9,12.1,30.16,NNW,343,0.0,2.0,60,0.00,,---,0.00,VWS V14.01,2013-01-03 07:07:00,
2013-01-03 02:12:00,23.9,12.1,30.16,NNW,343,0.0,0.0,60,0.00,,---,0.00,VWS V14.01,2013-01-03 07:12:00,
2013-01-03 02:17:00,23.8,12.0,30.16,NNW,343,0.0,0.0,60,0.00,,---,0.00,VWS V14.01,2013-01-03 07:17:00,
2013-01-03 02:22:00,23.8,12.3,30.16,North,355,0.0,3.0,61,0.00,,---,0.00,VWS V14.01,2013-01-03 07:22:00,
2013-01-03 02:27:00,23.8,12.3,30.16,North,355,0.0,0.0,61,0.00,,---,0.00,VWS V14.01,2013-01-03 07:27:00,
2013-01-03 02:32:00,23.6,12.1,30.16,North,355,0.0,0.0,61,0.00,,---,0.00,VWS V14.01,2013-01-03 07:32:00,
2013-01-03 02:37:00,23.5,12.4,30.16,North,355,0.0,0.0,62,0.00,,---,0.00,VWS V14.01,2013-01-03 07:37:00,
2013-01-03 02:42:00,23.5,12.4,30.16,North,355,0.0,0.0,62,0.00,,---,0.00,VWS V14.01,2013-01-03 07:42:00,
2013-01-03 02:47:00,23.6,12.1,30.16,North,355,0.0,0.0,61,0.00,,---,0.00,VWS V14.01,2013-01-03 07:47:00,
2013-01-03 02:52:00,23.8,12.3,30.16,North,355,0.0,0.0,61,0.00,,---,0.00,VWS V14.01,2013-01-03 07:52:00,
2013-01-03 02:57:00,23.5,12.4,30.16,North,355,0.0,0.0,62,0.00,,---,0.00,VWS V14.01,2013-01-03 07:57:00,
2013-01-03 03:02:00,23.3,12.2,30.16,North,355,0.0,0.0,62,0.00,,---,0.00,VWS V14.01,2013-01-03 08:02:00,
2013-01-03 03:07:00,23.2,12.5,30.16,North,355,0.0,0.0,63,0.00,,---,0.00,VWS V14.01,2013-01-03 08:07:00,
2013-01-03 03:12:00,23.0,12.3,30.16,North,355,0.0,0.0,63,0.00,,---,0.00,VWS V14.01,2013-01-03 08:12:00,
2013-01-03 03:17:00,23.2,12.1,30.16,North,355,0.0,0.0,62,0.00,,---,0.00,VWS V14.01,2013-01-03 08:17:00,
2013-01-03 03:22:00,23.0,12.3,30.16,North,355,0.0,0.0,63,0.00,,---,0.00,VWS V14.01,2013-01-03 08:22:00,
2013-01-03 03:27:00,23.0,12.3,30.16,North,355,0.0,0.0,63,0.00,,---,0.00,VWS V14.01,2013-01-03 08:27:00,
2013-01-03 03:32:00,23.0,12.3,30.16,North,355,0.0,1.0,63,0.00,,---,0.00,VWS V14.01,2013-01-03 08:32:00,
2013-01-03 03:37:00,22.9,12.2,30.16,North,355,0.0,0.0,63,0.00,,---,0.00,VWS V14.01,2013-01-03 08:37:00,
2013-01-03 03:42:00,22.9,12.2,30.16,North,355,0.0,0.0,63,0.00,,---,0.00,VWS V14.01,2013-01-03 08:42:00,
2013-01-03 03:47:00,22.7,12.0,30.15,North,355,0.0,0.0,63,0.00,,---,0.00,VWS V14.01,2013-01-03 08:47:00,
2013-01-03 03:52:00,22.4,11.7,30.15,North,355,0.0,0.0,63,0.00,,---,0.00,VWS V14.01,2013-01-03 08:52:00,
2013-01-03 03:57:00,22.5,11.8,30.15,North,355,0.0,0.0,63,0.00,,---,0.00,VWS V14.01,2013-01-03 08:57:00,
2013-01-03 04:02:00,22.4,11.7,30.15,North,355,0.0,0.0,63,0.00,,---,0.00,VWS V14.01,2013-01-03 09:02:00,
2013-01-03 04:07:00,22.5,11.8,30.15,North,355,0.0,0.0,63,0.00,,---,0.00,VWS V14.01,2013-01-03 09:07:00,
2013-01-03 04:12:00,21.9,11.6,30.15,North,355,0.0,0.0,64,0.00,,---,0.00,VWS V14.01,2013-01-03 09:12:00,
2013-01-03 04:17:00,22.2,11.5,30.16,North,355,0.0,0.0,63,0.00,,---,0.00,VWS V14.01,2013-01-03 09:17:00,
2013-01-03 04:22:00,22.2,11.5,30.16,North,355,1.0,1.0,63,0.00,,---,0.00,VWS V14.01,2013-01-03 09:22:00,
2013-01-03 04:27:00,22.2,11.5,30.16,North,355,0.0,0.0,63,0.00,,---,0.00,VWS V14.01,2013-01-03 09:27:00,
2013-01-03 04:32:00,21.6,11.3,30.15,NNE,23,0.0,0.0,64,0.00,,---,0.00,VWS V14.01,2013-01-03 09:32:00,
2013-01-03 04:37:00,21.0,11.4,30.15,NNE,23,0.0,0.0,66,0.00,,---,0.00,VWS V14.01,2013-01-03 09:37:00,
2013-01-03 04:42:00,21.1,11.2,30.15,NNE,23,0.0,0.0,65,0.00,,---,0.00,VWS V14.01,2013-01-03 09:42:00,
2013-01-03 04:47:00,21.1,11.9,30.15,NNE,23,0.0,0.0,67,0.00,,---,0.00,VWS V14.01,2013-01-03 09:47:00,
2013-01-03 04:52:00,20.8,11.9,30.15,NNE,23,0.0,0.0,68,0.00,,---,0.00,VWS V14.01,2013-01-03 09:52:00,
2013-01-03 04:57:00,20.5,11.6,30.15,NNE,23,0.0,0.0,68,0.00,,---,0.00,VWS V14.01,2013-01-03 09:57:00,
2013-01-03 05:02:00,20.3,12.1,30.15,NNE,23,0.0,0.0,70,0.00,,---,0.00,VWS V14.01,2013-01-03 10:02:00,
2013-01-03 05:07:00,20.3,12.1,30.15,NNE,23,0.0,0.0,70,0.00,,---,0.00,VWS V14.01,2013-01-03 10:07:00,
2013-01-03 05:12:00,20.3,11.4,30.15,NNE,23,0.0,0.0,68,0.00,,---,0.00,VWS V14.01,2013-01-03 10:12:00,
2013-01-03 05:17:00,20.0,11.8,30.15,NNE,23,0.0,0.0,70,0.00,,---,0.00,VWS V14.01,2013-01-03 10:17:00,
2013-01-03 05:22:00,19.9,12.3,30.15,NNE,23,0.0,0.0,72,0.00,,---,0.00,VWS V14.01,2013-01-03 10:22:00,
2013-01-03 05:27:00,20.5,12.3,30.15,NNE,23,0.0,0.0,70,0.00,,---,0.00,VWS V14.01,2013-01-03 10:27:00,
2013-01-03 05:32:00,20.3,11.1,30.15,NNE,23,0.0,0.0,67,0.00,,---,0.00,VWS V14.01,2013-01-03 10:32:00,
2013-01-03 05:37:00,19.5,11.0,30.15,NNE,23,0.0,0.0,69,0.00,,---,0.00,VWS V14.01,2013-01-03 10:37:00,
2013-01-03 05:42:00,19.7,11.5,30.15,NNE,23,0.0,0.0,70,0.00,,---,0.00,VWS V14.01,2013-01-03 10:42:00,
2013-01-03 05:47:00,19.7,11.2,30.15,NNE,23,0.0,0.0,69,0.00,,---,0.00,VWS V14.01,2013-01-03 10:47:00,
2013-01-03 05:52:00,19.7,11.8,30.15,NNE,23,0.0,0.0,71,0.00,,---,0.00,VWS V14.01,2013-01-03 10:52:00,
2013-01-03 05:57:00,20.2,11.0,30.15,NNE,23,0.0,0.0,67,0.00,,---,0.00,VWS V14.01,2013-01-03 10:57:00,
2013-01-03 06:02:00,19.9,10.7,30.15,NNE,23,0.0,0.0,67,0.00,,---,0.00,VWS V14.01,2013-01-03 11:02:00,
2013-01-03 06:07:00,19.7,10.9,30.15,NNE,23,0.0,0.0,68,0.00,,---,0.00,VWS V14.01,2013-01-03 11:07:00,
2013-01-03 06:12:00,19.7,11.2,30.15,NNE,23,0.0,0.0,69,0.00,,---,0.00,VWS V14.01,2013-01-03 11:12:00,
2013-01-03 06:17:00,20.6,11.4,30.16,NNE,23,0.0,0.0,67,0.00,,---,0.00,VWS V14.01,2013-01-03 11:17:00,
2013-01-03 06:22:00,20.2,10.7,30.16,NNE,23,0.0,0.0,66,0.00,,---,0.00,VWS V14.01,2013-01-03 11:22:00,
2013-01-03 06:27:00,19.4,10.9,30.16,NNE,23,0.0,0.0,69,0.00,,---,0.00,VWS V14.01,2013-01-03 11:27:00,
2013-01-03 06:32:00,19.9,11.4,30.17,NNE,23,0.0,0.0,69,0.00,,---,0.00,VWS V14.01,2013-01-03 11:32:00,
2013-01-03 06:37:00,19.7,10.5,30.17,NNE,23,0.0,0.0,67,0.00,,---,0.00,VWS V14.01,2013-01-03 11:37:00,
2013-01-03 06:42:00,19.4,10.9,30.17,NNE,24,0.0,0.0,69,0.00,,---,0.00,VWS V14.01,2013-01-03 11:42:00,
2013-01-03 06:47:00,19.1,10.0,30.16,NNE,23,0.0,0.0,67,0.00,,---,0.00,VWS V14.01,2013-01-03 11:47:00,
2013-01-03 06:52:00,18.8,10.0,30.16,NNE,24,0.0,0.0,68,0.00,,---,0.00,VWS V14.01,2013-01-03 11:52:00,
2013-01-03 06:57:00,18.6,10.5,30.16,NNE,24,0.0,0.0,70,0.00,,---,0.00,VWS V14.01,2013-01-03 11:57:00,
2013-01-03 07:02:00,18.3,10.5,30.16,NNE,24,0.0,0.0,71,0.00,,---,0.00,VWS V14.01,2013-01-03 12:02:00,
2013-01-03 07:07:00,18.1,10.6,30.16,NNE,24,0.0,0.0,72,0.00,,---,0.00,VWS V14.01,2013-01-03 12:07:00,
2013-01-03 07:12:00,18.0,10.8,30.16,NNE,24,0.0,0.0,73,0.00,,---,0.00,VWS V14.01,2013-01-03 12:12:00,
2013-01-03 07:17:00,18.0,10.8,30.16,NNE,24,0.0,0.0,73,0.00,,---,0.00,VWS V14.01,2013-01-03 12:17:00,
2013-01-03 07:22:00,17.7,10.8,30.16,NNE,24,0.0,0.0,74,0.00,,---,0.00,VWS V14.01,2013-01-03 12:22:00,
2013-01-03 07:27:00,17.7,10.8,30.16,NNE,24,0.0,0.0,74,0.00,,---,0.00,VWS V14.01,2013-01-03 12:27:00,
2013-01-03 07:32:00,17.7,10.8,30.17,NNE,24,0.0,0.0,74,0.00,,---,0.00,VWS V14.01,2013-01-03 12:32:00,
2013-01-03 07:37:00,17.7,10.8,30.17,NNE,24,0.0,0.0,74,0.00,,---,0.00,VWS V14.01,2013-01-03 12:37:00,
2013-01-03 07:42:00,17.7,10.5,30.17,NNE,24,0.0,0.0,73,0.00,,---,0.00,VWS V14.01,2013-01-03 12:42:00,
2013-01-03 07:47:00,17.5,10.3,30.17,NNE,24,0.0,0.0,73,0.00,,---,0.00,VWS V14.01,2013-01-03 12:47:00,
2013-01-03 07:52:00,17.7,10.8,30.17,NNE,24,0.0,0.0,74,0.00,,---,0.00,VWS V14.01,2013-01-03 12:52:00,
2013-01-03 07:57:00,17.7,10.8,30.17,NNE,24,0.0,0.0,74,0.00,,---,0.00,VWS V14.01,2013-01-03 12:57:00,
2013-01-03 08:02:00,17.8,11.2,30.17,NNE,24,0.0,0.0,75,0.00,,---,0.00,VWS V14.01,2013-01-03 13:02:00,
2013-01-03 08:07:00,18.0,11.4,30.17,NNE,24,0.0,0.0,75,0.00,,---,0.00,VWS V14.01,2013-01-03 13:07:00,
2013-01-03 08:12:00,18.0,11.4,30.17,NNE,24,0.0,0.0,75,0.00,,---,0.00,VWS V14.01,2013-01-03 13:12:00,
2013-01-03 08:17:00,18.0,11.4,30.17,NNE,24,0.0,0.0,75,0.00,,---,0.00,VWS V14.01,2013-01-03 13:17:00,
2013-01-03 08:22:00,18.3,11.7,30.17,NNE,24,0.0,0.0,75,0.00,,---,0.00,VWS V14.01,2013-01-03 13:22:00,
2013-01-03 08:27:00,18.6,11.4,30.17,NNE,24,0.0,0.0,73,0.00,,---,0.00,VWS V14.01,2013-01-03 13:27:00,
2013-01-03 08:32:00,18.9,12.0,30.18,NNE,24,0.0,0.0,74,0.00,,---,0.00,VWS V14.01,2013-01-03 13:32:00,
2013-01-03 08:37:00,19.2,12.0,30.18,NNE,24,0.0,0.0,73,0.00,,---,0.00,VWS V14.01,2013-01-03 13:37:00,
2013-01-03 08:42:00,19.7,11.5,30.18,NNE,24,0.0,0.0,70,0.00,,---,0.00,VWS V14.01,2013-01-03 13:42:00,
2013-01-03 08:47:00,20.8,11.9,30.18,NNE,24,0.0,0.0,68,0.00,,---,0.00,VWS V14.01,2013-01-03 13:47:00,
2013-01-03 08:52:00,21.6,12.0,30.18,NNE,24,1.0,1.0,66,0.00,,---,0.00,VWS V14.01,2013-01-03 13:52:00,
2013-01-03 08:57:00,21.9,12.0,30.18,NNE,25,0.0,0.0,65,0.00,,---,0.00,VWS V14.01,2013-01-03 13:57:00,
2013-01-03 09:02:00,22.1,11.8,30.19,ESE,113,1.0,3.0,64,0.00,,---,0.00,VWS V14.01,2013-01-03 14:02:00,
2013-01-03 09:07:00,21.9,12.0,30.19,ESE,115,2.0,2.0,65,0.00,,---,0.00,VWS V14.01,2013-01-03 14:07:00,
2013-01-03 09:12:00,21.9,12.0,30.19,SE,129,0.0,3.0,65,0.00,,---,0.00,VWS V14.01,2013-01-03 14:12:00,
2013-01-03 09:17:00,22.2,12.2,30.19,SE,130,0.0,3.0,65,0.00,,---,0.00,VWS V14.01,2013-01-03 14:17:00,
2013-01-03 09:22:00,22.2,11.9,30.19,SE,136,0.0,0.0,64,0.00,,---,0.00,VWS V14.01,2013-01-03 14:22:00,
2013-01-03 09:27:00,22.5,12.2,30.19,SSE,167,0.0,5.0,64,0.00,,---,0.00,VWS V14.01,2013-01-03 14:27:00,
2013-01-03 09:32:00,22.7,12.4,30.19,SSE,168,0.0,0.0,64,0.00,,---,0.00,VWS V14.01,2013-01-03 14:32:00,
2013-01-03 09:37:00,23.0,12.6,30.19,SSE,168,0.0,0.0,64,0.00,,---,0.00,VWS V14.01,2013-01-03 14:37:00,
2013-01-03 09:42:00,22.9,12.6,30.19,SSE,168,0.0,0.0,64,0.00,,---,0.00,VWS V14.01,2013-01-03 14:42:00,
2013-01-03 09:47:00,23.3,12.6,30.19,South,170,0.0,5.0,63,0.00,,---,0.00,VWS V14.01,2013-01-03 14:47:00,
2013-01-03 09:52:00,23.5,12.8,30.19,South,170,0.0,0.0,63,0.00,,---,0.00,VWS V14.01,2013-01-03 14:52:00,
2013-01-03 09:57:00,23.8,12.7,30.19,South,170,0.0,0.0,62,0.00,,---,0.00,VWS V14.01,2013-01-03 14:57:00,
2013-01-03 10:02:00,23.8,13.1,30.19,South,170,0.0,2.0,63,0.00,,---,0.00,VWS V14.01,2013-01-03 15:02:00,
2013-01-03 10:07:00,23.9,13.1,30.19,South,170,1.0,2.0,63,0.00,,---,0.00,VWS V14.01,2013-01-03 15:07:00,
2013-01-03 10:12:00,24.1,13.3,30.19,South,180,3.0,5.0,63,0.00,,---,0.00,VWS V14.01,2013-01-03 15:12:00,
2013-01-03 10:17:00,24.4,13.3,30.19,South,180,0.0,4.0,62,0.00,,---,0.00,VWS V14.01,2013-01-03 15:17:00,
2013-01-03 10:22:00,24.8,13.6,30.19,South,180,0.0,0.0,62,0.00,,---,0.00,VWS V14.01,2013-01-03 15:22:00,
2013-01-03 10:27:00,25.3,13.8,30.19,South,180,0.0,0.0,61,0.00,,---,0.00,VWS V14.01,2013-01-03 15:27:00,
2013-01-03 10:32:00,25.6,13.7,30.18,South,180,0.0,0.0,60,0.00,,---,0.00,VWS V14.01,2013-01-03 15:32:00,
2013-01-03 10:37:00,25.4,13.8,30.18,WSW,243,2.0,4.0,61,0.00,,---,0.00,VWS V14.01,2013-01-03 15:37:00,
2013-01-03 10:42:00,25.3,14.1,30.18,WSW,242,0.0,0.0,62,0.00,,---,0.00,VWS V14.01,2013-01-03 15:42:00,
2013-01-03 10:47:00,25.4,14.6,30.18,WSW,243,0.0,0.0,63,0.00,,---,0.00,VWS V14.01,2013-01-03 15:47:00,
2013-01-03 10:52:00,25.8,14.6,30.18,WSW,248,0.0,4.0,62,0.00,,---,0.00,VWS V14.01,2013-01-03 15:52:00,
2013-01-03 10:57:00,26.0,14.8,30.18,WNW,286,0.0,0.0,62,0.00,,---,0.00,VWS V14.01,2013-01-03 15:57:00,
2013-01-03 11:02:00,25.7,14.5,30.17,WNW,284,0.0,0.0,62,0.00,,---,0.00,VWS V14.01,2013-01-03 16:02:00,
2013-01-03 11:07:00,26.0,15.1,30.17,WSW,258,0.0,3.0,63,0.00,,---,0.00,VWS V14.01,2013-01-03 16:07:00,
2013-01-03 11:12:00,26.3,15.1,30.17,WSW,256,0.0,0.0,62,0.00,,---,0.00,VWS V14.01,2013-01-03 16:12:00,
2013-01-03 11:17:00,26.1,15.2,30.17,WSW,257,0.0,0.0,63,0.00,,---,0.00,VWS V14.01,2013-01-03 16:17:00,
2013-01-03 11:22:00,26.1,14.5,30.17,WSW,257,0.0,0.0,61,0.00,,---,0.00,VWS V14.01,2013-01-03 16:22:00,
2013-01-03 11:27:00,26.3,14.7,30.17,WSW,258,0.0,2.0,61,0.00,,---,0.00,VWS V14.01,2013-01-03 16:27:00,
2013-01-03 11:32:00,26.4,15.2,30.16,West,259,0.0,2.0,62,0.00,,---,0.00,VWS V14.01,2013-01-03 16:32:00,
2013-01-03 11:37:00,26.4,14.8,30.16,West,264,3.0,3.0,61,0.00,,---,0.00,VWS V14.01,2013-01-03 16:37:00,
2013-01-03 11:42:00,26.4,14.8,30.16,West,271,2.0,3.0,61,0.00,,---,0.00,VWS V14.01,2013-01-03 16:42:00,
2013-01-03 11:47:00,26.6,15.4,30.15,West,269,0.0,3.0,62,0.00,,---,0.00,VWS V14.01,2013-01-03 16:47:00,
2013-01-03 11:52:00,26.7,15.1,30.15,West,273,2.0,4.0,61,0.00,,---,0.00,VWS V14.01,2013-01-03 16:52:00,
2013-01-03 11:57:00,27.2,15.2,30.15,West,281,1.0,4.0,60,0.00,,---,0.00,VWS V14.01,2013-01-03 16:57:00,
2013-01-03 12:02:00,27.6,15.6,30.14,West,281,3.0,4.0,60,0.00,,---,0.00,VWS V14.01,2013-01-03 17:02:00,
2013-01-03 12:07:00,27.8,15.4,30.14,WNW,283,2.0,4.0,59,0.00,,---,0.00,VWS V14.01,2013-01-03 17:07:00,
2013-01-03 12:12:00,27.8,15.4,30.14,WNW,283,2.0,5.0,59,0.00,,---,0.00,VWS V14.01,2013-01-03 17:12:00,
2013-01-03 12:17:00,28.2,15.3,30.13,West,278,3.0,3.0,58,0.00,,---,0.00,VWS V14.01,2013-01-03 17:17:00,
2013-01-03 12:22:00,28.5,15.2,30.13,West,265,0.0,4.0,57,0.00,,---,0.00,VWS V14.01,2013-01-03 17:22:00,
2013-01-03 12:27:00,29.0,14.9,30.13,West,275,2.0,3.0,55,0.00,,---,0.00,VWS V14.01,2013-01-03 17:27:00,
2013-01-03 12:32:00,29.0,14.9,30.12,WNW,288,5.0,8.0,55,0.00,,---,0.00,VWS V14.01,2013-01-03 17:32:00,
2013-01-03 12:37:00,29.1,15.0,30.12,West,272,2.0,4.0,55,0.00,,---,0.00,VWS V14.01,2013-01-03 17:37:00,
2013-01-03 12:42:00,29.3,15.1,30.12,WNW,299,4.0,6.0,55,0.00,,---,0.00,VWS V14.01,2013-01-03 17:42:00,
2013-01-03 12:47:00,29.7,15.5,30.12,West,277,8.0,8.0,55,0.00,,---,0.00,VWS V14.01,2013-01-03 17:47:00,
2013-01-03 12:52:00,29.7,14.7,30.12,NW,322,5.0,7.0,53,0.00,,---,0.00,VWS V14.01,2013-01-03 17:52:00,
2013-01-03 12:57:00,29.8,15.2,30.12,West,280,0.0,3.0,54,0.00,,---,0.00,VWS V14.01,2013-01-03 17:57:00,
2013-01-03 13:02:00,30.0,15.8,30.11,West,272,0.0,4.0,55,0.00,,---,0.00,VWS V14.01,2013-01-03 18:02:00,
2013-01-03 13:07:00,30.1,15.5,30.11,WNW,282,2.0,3.0,54,0.00,,---,0.00,VWS V14.01,2013-01-03 18:07:00,
2013-01-03 13:12:00,30.0,15.4,30.11,WNW,287,3.0,4.0,54,0.00,,---,0.00,VWS V14.01,2013-01-03 18:12:00,
2013-01-03 13:17:00,30.1,15.5,30.11,WNW,287,3.0,6.0,54,0.00,,---,0.00,VWS V14.01,2013-01-03 18:17:00,
2013-01-03 13:22:00,30.1,15.5,30.11,West,273,2.0,5.0,54,0.00,,---,0.00,VWS V14.01,2013-01-03 18:22:00,
2013-01-03 13:27:00,30.1,15.5,30.11,WNW,284,0.0,4.0,54,0.00,,---,0.00,VWS V14.01,2013-01-03 18:27:00,
2013-01-03 13:32:00,30.4,14.9,30.10,WSW,251,2.0,6.0,52,0.00,,---,0.00,VWS V14.01,2013-01-03 18:32:00,
2013-01-03 13:37:00,30.3,15.7,30.10,West,278,5.0,5.0,54,0.00,,---,0.00,VWS V14.01,2013-01-03 18:37:00,
2013-01-03 13:42:00,30.3,15.7,30.10,WSW,253,6.0,8.0,54,0.00,,---,0.00,VWS V14.01,2013-01-03 18:42:00,
2013-01-03 13:47:00,30.3,15.7,30.09,WNW,285,0.0,0.0,54,0.00,,---,0.00,VWS V14.01,2013-01-03 18:47:00,
2013-01-03 13:52:00,30.4,15.8,30.09,West,270,1.0,3.0,54,0.00,,---,0.00,VWS V14.01,2013-01-03 18:52:00,
2013-01-03 13:57:00,30.6,15.9,30.09,West,275,3.0,4.0,54,0.00,,---,0.00,VWS V14.01,2013-01-03 18:57:00,
2013-01-03 14:02:00,30.6,15.5,30.10,WSW,257,1.0,4.0,53,0.00,,---,0.00,VWS V14.01,2013-01-03 19:02:00,
2013-01-03 14:07:00,30.7,16.0,30.10,West,275,1.0,2.0,54,0.00,,---,0.00,VWS V14.01,2013-01-03 19:07:00,
2013-01-03 14:12:00,30.6,15.9,30.10,West,275,0.0,3.0,54,0.00,,---,0.00,VWS V14.01,2013-01-03 19:12:00,
2013-01-03 14:17:00,30.6,15.9,30.10,WNW,300,2.0,3.0,54,0.00,,---,0.00,VWS V14.01,2013-01-03 19:17:00,
2013-01-03 14:54:00,31.2,16.5,30.10,West,271,0.0,0.0,54,0.00,,---,0.00,VWS V14.01,2013-01-03 19:54:00,
2013-01-03 14:59:00,31.6,16.9,30.10,WSW,253,0.0,3.0,54,0.00,,---,0.00,VWS V14.01,2013-01-03 19:59:00,
2013-01-03 15:04:00,31.5,16.4,30.09,West,277,4.0,5.0,53,0.00,,---,0.00,VWS V14.01,2013-01-03 20:04:00,
2013-01-03 15:09:00,31.3,17.0,30.09,West,268,0.0,6.0,55,0.00,,---,0.00,VWS V14.01,2013-01-03 20:09:00,
2013-01-03 15:14:00,31.6,16.5,30.09,West,265,3.0,3.0,53,0.00,,---,0.00,VWS V14.01,2013-01-03 20:14:00,
2013-01-03 15:19:00,31.5,16.8,30.09,West,259,0.0,2.0,54,0.00,,---,0.00,VWS V14.01,2013-01-03 20:19:00,
2013-01-03 15:24:00,31.5,16.8,30.09,SSW,212,0.0,3.0,54,0.00,,---,0.00,VWS V14.01,2013-01-03 20:24:00,
2013-01-03 15:29:00,31.5,16.4,30.09,West,265,0.0,2.0,53,0.00,,---,0.00,VWS V14.01,2013-01-03 20:29:00,
2013-01-03 15:34:00,31.3,16.2,30.09,South,187,0.0,3.0,53,0.00,,---,0.00,VWS V14.01,2013-01-03 20:34:00,
2013-01-03 15:39:00,31.3,16.2,30.09,SSW,201,5.0,5.0,53,0.00,,---,0.00,VWS V14.01,2013-01-03 20:39:00,
2013-01-03 15:44:00,31.6,16.5,30.09,SSW,202,0.0,0.0,53,0.00,,---,0.00,VWS V14.01,2013-01-03 20:44:00,
2013-01-03 15:49:00,31.8,16.2,30.09,WSW,244,0.0,3.0,52,0.00,,---,0.00,VWS V14.01,2013-01-03 20:49:00,
2013-01-03 15:54:00,31.5,16.4,30.09,SW,235,0.0,2.0,53,0.00,,---,0.00,VWS V14.01,2013-01-03 20:54:00,
2013-01-03 15:59:00,31.2,16.5,30.09,WSW,244,0.0,3.0,54,0.00,,---,0.00,VWS V14.01,2013-01-03 20:59:00,
2013-01-03 16:04:00,31.0,16.3,30.10,SSW,202,0.0,0.0,54,0.00,,---,0.00,VWS V14.01,2013-01-03 21:04:00,
2013-01-03 16:09:00,31.0,16.3,30.10,SSW,203,0.0,3.0,54,0.01,,---,0.01,VWS V14.01,2013-01-03 21:09:00,
2013-01-03 16:14:00,30.9,16.2,30.10,SSW,207,0.0,0.0,54,0.01,,---,0.01,VWS V14.01,2013-01-03 21:14:00,
2013-01-03 16:19:00,30.6,16.4,30.10,WSW,244,1.0,1.0,55,0.01,,---,0.01,VWS V14.01,2013-01-03 21:19:00,
2013-01-03 16:24:00,30.4,16.2,30.10,WSW,244,0.0,0.0,55,0.01,,---,0.01,VWS V14.01,2013-01-03 21:24:00,
2013-01-03 16:29:00,30.0,15.8,30.10,WSW,244,0.0,0.0,55,0.01,,---,0.01,VWS V14.01,2013-01-03 21:29:00,
2013-01-03 16:34:00,30.0,15.8,30.10,WSW,244,0.0,0.0,55,0.01,,---,0.01,VWS V14.01,2013-01-03 21:34:00,
2013-01-03 16:39:00,30.0,16.2,30.10,WSW,244,0.0,0.0,56,0.01,,---,0.01,VWS V14.01,2013-01-03 21:39:00,
2013-01-03 16:44:00,30.0,16.2,30.10,WSW,244,0.0,0.0,56,0.01,,---,0.01,VWS V14.01,2013-01-03 21:44:00,
2013-01-03 16:49:00,29.7,16.4,30.11,WSW,244,0.0,0.0,57,0.01,,---,0.01,VWS V14.01,2013-01-03 21:49:00,
2013-01-03 16:54:00,29.7,15.9,30.11,WSW,244,0.0,0.0,56,0.01,,---,0.01,VWS V14.01,2013-01-03 21:54:00,
2013-01-03 16:59:00,29.5,15.8,30.11,WSW,244,0.0,0.0,56,0.01,,---,0.01,VWS V14.01,2013-01-03 21:59:00,
2013-01-03 17:04:00,29.0,15.7,30.11,WSW,244,0.0,0.0,57,0.01,,---,0.01,VWS V14.01,2013-01-03 22:04:00,
2013-01-03 17:09:00,28.7,15.8,30.11,WSW,244,0.0,0.0,58,0.01,,---,0.01,VWS V14.01,2013-01-03 22:09:00,
2013-01-03 17:14:00,28.4,15.5,30.11,WSW,244,0.0,0.0,58,0.00,,---,0.01,VWS V14.01,2013-01-03 22:14:00,
2013-01-03 17:19:00,27.9,15.8,30.11,WSW,244,0.0,0.0,60,0.00,,---,0.01,VWS V14.01,2013-01-03 22:19:00,
2013-01-03 17:24:00,28.1,15.6,30.11,WSW,244,0.0,0.0,59,0.00,,---,0.01,VWS V14.01,2013-01-03 22:24:00,
2013-01-03 17:29:00,27.9,15.8,30.11,WSW,244,0.0,0.0,60,0.00,,---,0.01,VWS V14.01,2013-01-03 22:29:00,
2013-01-03 17:34:00,27.8,15.7,30.11,WSW,244,0.0,0.0,60,0.00,,---,0.01,VWS V14.01,2013-01-03 22:34:00,
2013-01-03 17:39:00,28.1,15.6,30.11,WSW,244,0.0,0.0,59,0.00,,---,0.01,VWS V14.01,2013-01-03 22:39:00,
2013-01-03 17:44:00,27.9,15.4,30.11,WSW,244,0.0,1.0,59,0.00,,---,0.01,VWS V14.01,2013-01-03 22:44:00,
2013-01-03 17:49:00,28.4,15.9,30.12,WSW,247,1.0,1.0,59,0.00,,---,0.01,VWS V14.01,2013-01-03 22:49:00,
2013-01-03 17:54:00,28.7,15.8,30.12,WSW,247,0.0,0.0,58,0.00,,---,0.01,VWS V14.01,2013-01-03 22:54:00,
2013-01-03 17:59:00,28.7,15.4,30.12,WSW,247,0.0,0.0,57,0.00,,---,0.01,VWS V14.01,2013-01-03 22:59:00,
2013-01-03 18:04:00,29.0,15.7,30.11,WSW,247,0.0,0.0,57,0.00,,---,0.01,VWS V14.01,2013-01-03 23:04:00,
2013-01-03 18:09:00,29.1,15.4,30.11,WSW,249,0.0,0.0,56,0.00,,---,0.01,VWS V14.01,2013-01-03 23:09:00,
2013-01-03 18:14:00,29.0,15.7,30.11,WSW,249,0.0,1.0,57,0.00,,---,0.01,VWS V14.01,2013-01-03 23:14:00,
2013-01-03 18:19:00,28.7,15.8,30.12,WSW,249,0.0,0.0,58,0.00,,---,0.01,VWS V14.01,2013-01-03 23:19:00,
2013-01-03 18:24:00,28.4,15.5,30.12,WSW,249,0.0,0.0,58,0.00,,---,0.01,VWS V14.01,2013-01-03 23:24:00,
2013-01-03 18:29:00,28.1,15.6,30.12,WSW,249,0.0,0.0,59,0.00,,---,0.01,VWS V14.01,2013-01-03 23:29:00,
2013-01-03 18:34:00,27.9,15.8,30.12,WSW,249,0.0,0.0,60,0.00,,---,0.01,VWS V14.01,2013-01-03 23:34:00,
2013-01-03 18:39:00,27.8,15.7,30.12,WSW,249,0.0,0.0,60,0.00,,---,0.01,VWS V14.01,2013-01-03 23:39:00,
2013-01-03 18:44:00,27.2,15.6,30.12,WSW,249,0.0,0.0,61,0.00,,---,0.01,VWS V14.01,2013-01-03 23:44:00,
2013-01-03 18:49:00,27.2,15.9,30.12,WSW,240,0.0,1.0,62,0.00,,---,0.01,VWS V14.01,2013-01-03 23:49:00,
2013-01-03 18:54:00,27.6,15.9,30.12,WSW,242,1.0,2.0,61,0.00,,---,0.01,VWS V14.01,2013-01-03 23:54:00,
2013-01-03 18:59:00,27.9,16.2,30.12,WSW,242,0.0,0.0,61,0.00,,---,0.01,VWS V14.01,2013-01-03 23:59:00,
2013-01-03 19:04:00,27.9,15.8,30.12,WSW,242,0.0,2.0,60,0.00,,---,0.01,VWS V14.01,2013-01-04 00:04:00,
2013-01-03 19:09:00,28.1,16.0,30.12,WSW,237,0.0,2.0,60,0.00,,---,0.01,VWS V14.01,2013-01-04 00:09:00,
2013-01-03 19:14:00,27.9,16.2,30.12,WSW,237,0.0,0.0,61,0.00,,---,0.01,VWS V14.01,2013-01-04 00:14:00,
2013-01-03 19:19:00,27.9,16.2,30.12,WSW,237,0.0,0.0,61,0.00,,---,0.01,VWS V14.01,2013-01-04 00:19:00,
2013-01-03 19:24:00,27.9,16.6,30.12,SW,236,0.0,1.0,62,0.00,,---,0.01,VWS V14.01,2013-01-04 00:24:00,
2013-01-03 19:29:00,28.2,16.1,30.12,South,178,0.0,2.0,60,0.00,,---,0.01,VWS V14.01,2013-01-04 00:29:00,
2013-01-03 19:34:00,28.7,16.2,30.12,South,178,0.0,3.0,59,0.00,,---,0.01,VWS V14.01,2013-01-04 00:34:00,
2013-01-03 19:39:00,29.1,16.2,30.12,South,180,0.0,2.0,58,0.00,,---,0.01,VWS V14.01,2013-01-04 00:39:00,
2013-01-03 19:44:00,29.1,16.2,30.12,SSW,208,0.0,3.0,58,0.00,,---,0.01,VWS V14.01,2013-01-04 00:44:00,
2013-01-03 19:49:00,29.4,16.1,30.12,SSW,208,0.0,1.0,57,0.00,,---,0.01,VWS V14.01,2013-01-04 00:49:00,
2013-01-03 19:54:00,29.4,16.1,30.12,West,261,0.0,5.0,57,0.00,,---,0.01,VWS V14.01,2013-01-04 00:54:00,
2013-01-03 19:59:00,29.1,15.8,30.12,West,261,0.0,0.0,57,0.00,,---,0.01,VWS V14.01,2013-01-04 00:59:00,
2013-01-03 20:04:00,28.7,15.8,30.12,West,261,0.0,0.0,58,0.00,,---,0.01,VWS V14.01,2013-01-04 01:04:00,
2013-01-03 20:09:00,28.7,15.8,30.12,West,259,0.0,0.0,58,0.00,,---,0.01,VWS V14.01,2013-01-04 01:09:00,
2013-01-03 20:14:00,29.0,16.1,30.12,WSW,257,0.0,0.0,58,0.00,,---,0.01,VWS V14.01,2013-01-04 01:14:00,
2013-01-03 20:19:00,29.0,16.1,30.12,SSW,193,0.0,2.0,58,0.00,,---,0.01,VWS V14.01,2013-01-04 01:19:00,
2013-01-03 20:24:00,29.4,16.1,30.12,WSW,240,0.0,3.0,57,0.00,,---,0.01,VWS V14.01,2013-01-04 01:24:00,
2013-01-03 20:29:00,29.7,16.4,30.12,SW,224,0.0,0.0,57,0.00,,---,0.01,VWS V14.01,2013-01-04 01:29:00,
2013-01-03 20:34:00,29.7,15.9,30.13,SW,220,3.0,7.0,56,0.00,,---,0.01,VWS V14.01,2013-01-04 01:34:00,
2013-01-03 20:39:00,30.1,15.9,30.13,WSW,254,5.0,5.0,55,0.00,,---,0.01,VWS V14.01,2013-01-04 01:39:00,
2013-01-03 20:44:00,30.6,15.9,30.13,West,272,7.0,7.0,54,0.00,,---,0.01,VWS V14.01,2013-01-04 01:44:00,
2013-01-03 20:49:00,30.6,16.4,30.12,WSW,257,4.0,9.0,55,0.00,,---,0.01,VWS V14.01,2013-01-04 01:49:00,
2013-01-03 20:54:00,30.7,16.0,30.12,West,264,0.0,5.0,54,0.00,,---,0.01,VWS V14.01,2013-01-04 01:54:00,
2013-01-03 20:59:00,30.6,16.4,30.12,West,272,3.0,7.0,55,0.00,,---,0.01,VWS V14.01,2013-01-04 01:59:00,
2013-01-03 21:04:00,30.6,16.4,30.13,WSW,257,3.0,10.0,55,0.00,,---,0.01,VWS V14.01,2013-01-04 02:04:00,
2013-01-03 21:09:00,30.7,16.5,30.13,West,279,0.0,6.0,55,0.00,,---,0.01,VWS V14.01,2013-01-04 02:09:00,
2013-01-03 21:14:00,30.7,16.5,30.13,West,264,1.0,6.0,55,0.00,,---,0.01,VWS V14.01,2013-01-04 02:14:00,
2013-01-03 21:19:00,30.7,16.9,30.13,WNW,289,3.0,6.0,56,0.00,,---,0.01,VWS V14.01,2013-01-04 02:19:00,
2013-01-03 21:24:00,31.0,16.7,30.13,West,281,0.0,6.0,55,0.00,,---,0.01,VWS V14.01,2013-01-04 02:24:00,
2013-01-03 21:29:00,30.9,17.1,30.13,WNW,286,1.0,4.0,56,0.00,,---,0.01,VWS V14.01,2013-01-04 02:29:00,
2013-01-03 21:34:00,30.9,17.1,30.13,West,269,4.0,8.0,56,0.00,,---,0.01,VWS V14.01,2013-01-04 02:34:00,
2013-01-03 21:39:00,30.7,16.9,30.13,WSW,250,5.0,6.0,56,0.00,,---,0.01,VWS V14.01,2013-01-04 02:39:00,
2013-01-03 21:44:00,30.9,17.1,30.13,WNW,287,5.0,11.0,56,0.00,,---,0.01,VWS V14.01,2013-01-04 02:44:00,
2013-01-03 21:49:00,31.0,17.2,30.13,West,266,0.0,7.0,56,0.00,,---,0.01,VWS V14.01,2013-01-04 02:49:00,
2013-01-03 21:54:00,31.2,17.3,30.13,West,260,6.0,10.0,56,0.00,,---,0.01,VWS V14.01,2013-01-04 02:54:00,
2013-01-03 21:59:00,31.2,17.3,30.13,West,275,0.0,4.0,56,0.00,,---,0.01,VWS V14.01,2013-01-04 02:59:00,
2013-01-03 22:04:00,31.0,17.2,30.13,West,275,1.0,8.0,56,0.00,,---,0.01,VWS V14.01,2013-01-04 03:04:00,
2013-01-03 22:09:00,30.9,17.5,30.13,West,279,7.0,8.0,57,0.00,,---,0.01,VWS V14.01,2013-01-04 03:09:00,
2013-01-03 22:14:00,30.7,17.3,30.13,West,271,6.0,9.0,57,0.00,,---,0.01,VWS V14.01,2013-01-04 03:14:00,
2013-01-03 22:19:00,30.7,17.3,30.12,West,267,2.0,13.0,57,0.00,,---,0.01,VWS V14.01,2013-01-04 03:19:00,
2013-01-03 22:23:00,30.7,17.3,30.12,WNW,289,6.0,10.0,57,0.00,,---,0.01,VWS V14.01,2013-01-04 03:23:00,
2013-01-03 22:28:00,30.9,17.5,30.12,WSW,251,0.0,5.0,57,0.00,,---,0.01,VWS V14.01,2013-01-04 03:28:00,
2013-01-03 22:33:00,31.0,17.6,30.13,WNW,286,3.0,11.0,57,0.00,,---,0.01,VWS V14.01,2013-01-04 03:33:00,
2013-01-03 22:38:00,31.0,17.6,30.13,West,278,3.0,13.0,57,0.00,,---,0.01,VWS V14.01,2013-01-04 03:38:00,
2013-01-03 22:43:00,30.9,17.9,30.13,WNW,296,5.0,9.0,58,0.00,,---,0.01,VWS V14.01,2013-01-04 03:43:00,
2013-01-03 22:48:00,30.7,17.7,30.12,West,281,7.0,14.0,58,0.00,,---,0.01,VWS V14.01,2013-01-04 03:48:00,
2013-01-03 22:53:00,30.7,17.7,30.12,West,279,5.0,11.0,58,0.00,,---,0.01,VWS V14.01,2013-01-04 03:53:00,
2013-01-03 22:58:00,30.7,17.7,30.12,NW,306,6.0,12.0,58,0.00,,---,0.01,VWS V14.01,2013-01-04 03:58:00,
2013-01-03 23:03:00,30.6,17.6,30.12,West,281,2.0,5.0,58,0.00,,---,0.01,VWS V14.01,2013-01-04 04:03:00,
2013-01-03 23:08:00,30.4,17.8,30.12,West,276,5.0,9.0,59,0.00,,---,0.01,VWS V14.01,2013-01-04 04:08:00,
2013-01-03 23:13:00,30.4,17.8,30.12,WNW,286,4.0,9.0,59,0.00,,---,0.01,VWS V14.01,2013-01-04 04:13:00,
2013-01-03 23:18:00,30.3,18.1,30.12,NW,306,3.0,11.0,60,0.00,,---,0.01,VWS V14.01,2013-01-04 04:18:00,
2013-01-03 23:23:00,30.3,18.1,30.12,WNW,286,6.0,9.0,60,0.00,,---,0.01,VWS V14.01,2013-01-04 04:23:00,
2013-01-03 23:28:00,30.3,18.1,30.12,WNW,299,7.0,14.0,60,0.00,,---,0.01,VWS V14.01,2013-01-04 04:28:00,
2013-01-03 23:33:00,30.4,18.2,30.11,WNW,295,6.0,15.0,60,0.00,,---,0.01,VWS V14.01,2013-01-04 04:33:00,
2013-01-03 23:38:00,30.4,18.2,30.11,NW,312,7.0,12.0,60,0.00,,---,0.01,VWS V14.01,2013-01-04 04:38:00,
2013-01-03 23:43:00,30.4,18.2,30.11,West,278,0.0,7.0,60,0.00,,---,0.01,VWS V14.01,2013-01-04 04:43:00,
2013-01-03 23:48:00,30.4,18.2,30.11,WNW,295,0.0,10.0,60,0.00,,---,0.01,VWS V14.01,2013-01-04 04:48:00,
2013-01-03 23:53:00,30.6,18.4,30.11,West,268,0.0,6.0,60,0.00,,---,0.01,VWS V14.01,2013-01-04 04:53:00,
2013-01-03 23:58:00,30.7,18.5,30.11,WNW,286,3.0,10.0,60,0.00,,---,0.01,VWS V14.01,2013-01-04 04:58:00,